Time;durP1;ratioP1;P1;durP2;ratioP2;P2;SDS_P1;SDS_P2;PMS_P1;PMS_P2;Temp;Humidity;BMP_temperature;BMP_pressure;BME280_temperature;BME280_humidity;BME280_pressure;Samples;Min_cycle;Max_cycle;Signal;HPM_P1;HPM_P2
2021/04/19 00:02:26;;;;;;;83.18;53.63;;;17.20;69.00;;;;;;5095874;28;20111;-62
2021/04/19 00:04:51;;;;;;;80.53;50.60;;;17.20;68.90;;;;;;5096151;28;20024;-62
2021/04/19 00:07:17;;;;;;;79.72;49.92;;;17.10;68.70;;;;;;5096089;28;20039;-62
2021/04/19 00:09:44;;;;;;;77.05;48.88;;;17.10;69.10;;;;;;5096087;28;20024;-62
2021/04/19 00:12:10;;;;;;;84.05;51.33;;;17.10;68.70;;;;;;5095899;28;20028;-63
2021/04/19 00:14:36;;;;;;;76.78;47.50;;;17.00;68.30;;;;;;5095848;28;20103;-63
2021/04/19 00:17:02;;;;;;;79.13;51.00;;;17.00;68.30;;;;;;5095778;28;20036;-62
2021/04/19 00:19:27;;;;;;;77.78;50.13;;;17.00;69.40;;;;;;5095937;28;20541;-62
2021/04/19 00:21:54;;;;;;;74.65;47.08;;;17.00;68.80;;;;;;5095970;28;20056;-62
2021/04/19 00:24:19;;;;;;;79.10;48.83;;;17.00;69.20;;;;;;5095784;28;20103;-62
2021/04/19 00:26:45;;;;;;;76.35;47.08;;;17.00;69.10;;;;;;5095536;28;20112;-63
2021/04/19 00:29:11;;;;;;;69.82;45.00;;;17.00;69.30;;;;;;5095513;28;20464;-62
2021/04/19 00:31:36;;;;;;;67.97;43.47;;;17.00;69.20;;;;;;5095363;28;20040;-62
2021/04/19 00:34:03;;;;;;;71.05;44.45;;;17.00;69.40;;;;;;5095424;28;20036;-62
2021/04/19 00:36:32;;;;;;;75.72;44.63;;;17.00;69.10;;;;;;5095435;28;20463;-62
2021/04/19 00:38:58;;;;;;;73.20;45.70;;;16.90;69.20;;;;;;5095367;28;20024;-62
2021/04/19 00:41:24;;;;;;;70.65;43.47;;;16.90;69.10;;;;;;5095142;28;20046;-61
2021/04/19 00:43:50;;;;;;;70.00;44.42;;;16.80;69.10;;;;;;5095124;28;20028;-62
2021/04/19 00:46:16;;;;;;;69.50;43.45;;;16.80;69.70;;;;;;5095360;28;20024;-62
2021/04/19 00:48:42;;;;;;;69.03;42.20;;;16.80;70.00;;;;;;5095242;28;20024;-62
2021/04/19 00:51:08;;;;;;;71.00;43.58;;;16.80;69.50;;;;;;5095198;28;20035;-62
2021/04/19 00:53:35;;;;;;;67.60;41.78;;;16.80;69.50;;;;;;5094877;28;20027;-62
2021/04/19 00:56:01;;;;;;;65.15;42.22;;;16.80;70.20;;;;;;5095332;28;20020;-62
2021/04/19 00:58:31;;;;;;;65.03;42.17;;;16.90;70.30;;;;;;5094892;28;20181;-62
2021/04/19 01:00:57;;;;;;;65.53;39.90;;;16.90;70.40;;;;;;5095163;28;20435;-62
2021/04/19 01:03:24;;;;;;;69.07;41.30;;;16.90;70.00;;;;;;5094953;28;20113;-62
2021/04/19 01:05:51;;;;;;;61.55;39.83;;;16.90;70.00;;;;;;5094283;28;20020;-62
2021/04/19 01:08:18;;;;;;;64.07;39.40;;;17.00;69.60;;;;;;5094719;28;20036;-62
2021/04/19 01:10:44;;;;;;;65.72;40.95;;;17.00;69.80;;;;;;5094761;28;20035;-62
2021/04/19 01:13:10;;;;;;;62.30;37.53;;;17.00;69.70;;;;;;5094643;28;20028;-62
2021/04/19 01:15:36;;;;;;;58.90;37.42;;;16.90;69.70;;;;;;5094492;28;20084;-62
2021/04/19 01:18:02;;;;;;;59.90;37.03;;;16.90;69.60;;;;;;5094614;28;20032;-61
2021/04/19 01:20:31;;;;;;;59.72;37.45;;;16.80;69.30;;;;;;5094690;28;20110;-62
2021/04/19 01:22:57;;;;;;;61.15;37.20;;;16.80;69.80;;;;;;5094485;28;20085;-62
2021/04/19 01:25:29;;;;;;;58.97;37.08;;;16.80;69.40;;;;;;5094559;28;20028;-62
2021/04/19 01:27:56;;;;;;;55.85;38.03;;;16.80;69.50;;;;;;5094523;28;20119;-62
2021/04/19 01:30:25;;;;;;;54.97;34.50;;;16.80;69.80;;;;;;5094274;28;20032;-62
2021/04/19 01:32:51;;;;;;;60.90;38.30;;;16.70;69.60;;;;;;5093606;28;20483;-62
2021/04/19 01:35:17;;;;;;;57.63;35.97;;;16.80;70.00;;;;;;5093527;28;20032;-62
2021/04/19 01:37:43;;;;;;;57.78;35.20;;;16.80;70.00;;;;;;5093365;28;20487;-62
2021/04/19 01:40:13;;;;;;;60.08;35.63;;;16.80;69.50;;;;;;5093224;28;20020;-62
2021/04/19 01:42:39;;;;;;;58.20;34.90;;;16.80;70.00;;;;;;5093517;28;20031;-62
2021/04/19 01:45:05;;;;;;;54.10;35.58;;;16.90;70.00;;;;;;5093452;28;20028;-62
2021/04/19 01:47:32;;;;;;;52.78;33.00;;;17.00;70.80;;;;;;5093148;28;20028;-62
2021/04/19 01:49:58;;;;;;;53.75;33.60;;;17.10;69.50;;;;;;5093288;28;20039;-62
2021/04/19 01:52:23;;;;;;;52.47;32.60;;;17.20;69.20;;;;;;5093234;28;20021;-62
2021/04/19 01:54:49;;;;;;;53.15;32.47;;;17.30;69.40;;;;;;5093112;28;20129;-62
2021/04/19 01:57:15;;;;;;;51.90;33.35;;;17.40;68.90;;;;;;5093493;28;20024;-62
2021/04/19 01:59:41;;;;;;;53.00;32.08;;;17.60;68.50;;;;;;5092978;28;20494;-62
2021/04/19 02:02:26;;;;;;;50.28;32.08;;;17.70;68.00;;;;;;5093242;28;20039;-62
2021/04/19 02:05:27;;;;;;;48.35;30.63;;;17.90;67.20;;;;;;5093177;28;20078;-62
2021/04/19 02:08:07;;;;;;;50.45;31.23;;;18.10;66.50;;;;;;5092970;28;20024;-62
2021/04/19 02:11:02;;;;;;;47.60;29.77;;;18.20;66.00;;;;;;5093100;28;20024;-63
2021/04/19 02:13:47;;;;;;;49.72;29.70;;;18.20;65.70;;;;;;5092848;28;20059;-60
2021/04/19 02:16:30;;;;;;;44.95;28.23;;;18.20;66.00;;;;;;5092040;28;20056;-62
2021/04/19 02:19:01;;;;;;;46.08;28.55;;;18.10;66.30;;;;;;5092935;28;20028;-62
2021/04/19 02:21:37;;;;;;;40.55;28.02;;;18.00;66.30;;;;;;5093233;28;20102;-60
2021/04/19 02:24:08;;;;;;;45.25;28.58;;;18.00;66.50;;;;;;5092958;28;20023;-62
2021/04/19 02:26:42;;;;;;;42.28;25.90;;;17.90;66.60;;;;;;5092629;28;20086;-61
2021/04/19 02:29:14;;;;;;;41.85;27.25;;;17.90;66.70;;;;;;5092832;28;20105;-62
2021/04/19 02:31:59;;;;;;;40.05;24.88;;;17.90;66.80;;;;;;5071507;28;608859;-62
2021/04/19 02:34:29;;;;;;;43.35;27.45;;;17.90;66.90;;;;;;5094168;28;20028;-62
2021/04/19 02:36:56;;;;;;;40.35;26.30;;;17.80;67.00;;;;;;5093686;28;20540;-60
2021/04/19 02:39:22;;;;;;;42.90;26.42;;;17.80;67.00;;;;;;5092372;28;20028;-62
2021/04/19 02:41:53;;;;;;;41.42;25.77;;;17.80;67.10;;;;;;5093459;28;20028;-63
2021/04/19 02:44:21;;;;;;;41.90;27.35;;;17.80;67.00;;;;;;5093516;28;20031;-61
2021/04/19 02:46:49;;;;;;;39.75;25.25;;;17.70;67.10;;;;;;5093219;28;20032;-61
2021/04/19 02:49:15;;;;;;;39.55;24.63;;;17.70;67.10;;;;;;5093482;28;20037;-61
2021/04/19 02:51:43;;;;;;;36.25;23.63;;;17.70;67.30;;;;;;5093241;28;20036;-61
2021/04/19 02:54:10;;;;;;;34.35;23.00;;;17.70;67.30;;;;;;5093477;28;20028;-61
2021/04/19 02:56:38;;;;;;;36.92;24.70;;;17.70;67.30;;;;;;5093145;28;20032;-60
2021/04/19 02:59:07;;;;;;;38.95;23.42;;;17.60;67.30;;;;;;5093339;28;20357;-62
2021/04/19 03:01:35;;;;;;;36.28;22.63;;;17.60;67.50;;;;;;5093395;28;20493;-62
2021/04/19 03:04:24;;;;;;;37.15;22.30;;;17.60;67.40;;;;;;5093138;28;20548;-62
2021/04/19 03:06:53;;;;;;;37.20;22.30;;;17.60;67.50;;;;;;5093264;28;20093;-63
2021/04/19 03:09:22;;;;;;;37.40;22.75;;;17.60;67.30;;;;;;5093319;28;20169;-62
2021/04/19 03:12:02;;;;;;;31.85;20.70;;;17.60;67.30;;;;;;5093241;28;20028;-62
2021/04/19 03:14:33;;;;;;;34.17;21.75;;;17.60;67.30;;;;;;5093299;28;20028;-62
2021/04/19 03:17:21;;;;;;;33.45;22.20;;;17.60;67.10;;;;;;5093040;28;20027;-62
2021/04/19 03:20:06;;;;;;;33.83;21.33;;;17.60;67.00;;;;;;5093481;28;20028;-62
2021/04/19 03:22:36;;;;;;;30.13;20.75;;;17.60;66.80;;;;;;5093040;28;20084;-62
2021/04/19 03:25:08;;;;;;;31.00;19.83;;;17.70;66.60;;;;;;5093888;28;20032;-62
2021/04/19 03:27:36;;;;;;;31.88;19.75;;;17.60;66.70;;;;;;5093973;28;20460;-62
2021/04/19 03:30:20;;;;;;;30.50;19.52;;;17.60;66.80;;;;;;5096575;28;20028;-62
2021/04/19 03:32:50;;;;;;;31.20;19.95;;;17.60;66.90;;;;;;5096929;28;20506;-62
2021/04/19 03:35:21;;;;;;;29.85;20.35;;;17.50;67.10;;;;;;5096666;28;20084;-62
2021/04/19 03:37:49;;;;;;;30.08;19.75;;;17.50;67.20;;;;;;5096578;28;20067;-62
2021/04/19 03:40:17;;;;;;;33.03;20.63;;;17.40;67.10;;;;;;5096476;28;20030;-62
2021/04/19 03:42:45;;;;;;;30.17;18.83;;;17.40;67.20;;;;;;5096296;28;20495;-62
2021/04/19 03:45:12;;;;;;;28.58;19.05;;;17.40;67.10;;;;;;5096464;28;20028;-62
2021/04/19 03:47:40;;;;;;;31.58;19.48;;;17.40;67.50;;;;;;5096372;28;20376;-62
2021/04/19 03:50:08;;;;;;;27.05;18.50;;;17.40;67.60;;;;;;5096425;28;20028;-62
2021/04/19 03:52:42;;;;;;;31.15;20.23;;;17.30;67.30;;;;;;5096093;28;20472;-63
2021/04/19 03:55:13;;;;;;;25.70;18.00;;;17.30;67.30;;;;;;5096891;28;20036;-62
2021/04/19 03:57:41;;;;;;;28.98;19.63;;;17.30;67.30;;;;;;5096314;28;20024;-62
2021/04/19 04:00:12;;;;;;;29.98;18.70;;;17.30;67.30;;;;;;5096553;28;20085;-62
2021/04/19 04:02:41;;;;;;;26.73;17.73;;;17.20;67.10;;;;;;5096172;28;20036;-61
2021/04/19 04:05:08;;;;;;;27.20;17.63;;;17.30;67.30;;;;;;5095893;28;20101;-62
2021/04/19 04:07:35;;;;;;;27.42;17.20;;;17.20;67.30;;;;;;5096156;28;20068;-62
2021/04/19 04:10:03;;;;;;;26.88;19.55;;;17.20;67.30;;;;;;5096013;28;20075;-62
2021/04/19 04:12:28;;;;;;;28.77;19.15;;;17.30;67.20;;;;;;5096019;28;20028;-61
2021/04/19 04:14:56;;;;;;;22.50;16.35;;;17.20;67.10;;;;;;5095717;28;20066;-61
2021/04/19 04:17:22;;;;;;;25.25;16.35;;;17.30;67.00;;;;;;5095572;28;20589;-61
2021/04/19 04:19:48;;;;;;;24.90;16.15;;;17.30;66.90;;;;;;5095521;28;20484;-62
2021/04/19 04:22:16;;;;;;;25.23;15.48;;;17.30;66.90;;;;;;5096051;28;20074;-62
2021/04/19 04:24:42;;;;;;;27.05;17.65;;;17.30;66.80;;;;;;5096216;28;20494;-62
2021/04/19 04:27:09;;;;;;;24.13;15.00;;;17.30;66.70;;;;;;5095637;28;20028;-62
2021/04/19 04:29:35;;;;;;;25.33;15.95;;;17.20;66.60;;;;;;5095541;28;20032;-61
2021/04/19 04:32:01;;;;;;;24.95;16.63;;;17.30;66.40;;;;;;5095056;28;20574;-62
2021/04/19 04:34:26;;;;;;;24.95;15.48;;;17.30;66.10;;;;;;5095263;28;20055;-61
2021/04/19 04:36:52;;;;;;;24.70;15.75;;;17.30;66.00;;;;;;5095454;28;20149;-62
2021/04/19 04:39:18;;;;;;;21.90;14.45;;;17.30;65.80;;;;;;5094267;28;20036;-62
2021/04/19 04:41:44;;;;;;;21.13;14.90;;;17.20;66.00;;;;;;5095318;28;20035;-61
2021/04/19 04:44:15;;;;;;;22.27;14.68;;;17.20;66.20;;;;;;5095289;28;20123;-62
2021/04/19 04:46:56;;;;;;;23.27;14.68;;;17.10;66.40;;;;;;5095069;28;20036;-62
2021/04/19 04:49:27;;;;;;;;;;;17.10;66.60;;;;;;5095758;28;20035;-62
2021/04/19 04:51:57;;;;;;;21.50;14.52;;;17.10;66.50;;;;;;5095078;28;19908;-62
2021/04/19 04:54:24;;;;;;;21.40;13.98;;;17.10;66.40;;;;;;5095140;28;20032;-61
2021/04/19 04:56:53;;;;;;;22.20;14.43;;;17.10;66.40;;;;;;5095106;28;20479;-61
2021/04/19 04:59:23;;;;;;;22.40;14.07;;;17.10;66.40;;;;;;5094743;28;20024;-62
2021/04/19 05:01:49;;;;;;;22.45;14.75;;;17.10;66.40;;;;;;5095481;28;20493;-62
2021/04/19 05:04:15;;;;;;;22.23;13.73;;;17.10;66.40;;;;;;5095177;28;20032;-62
2021/04/19 05:06:43;;;;;;;23.60;15.18;;;17.00;66.40;;;;;;5094841;28;20038;-61
2021/04/19 05:09:10;;;;;;;21.75;13.43;;;17.00;66.30;;;;;;5094700;28;20043;-62
2021/04/19 05:11:45;;;;;;;20.35;13.43;;;17.00;66.40;;;;;;5094726;28;20067;-62
2021/04/19 05:14:10;;;;;;;20.13;14.10;;;17.00;66.40;;;;;;5094798;28;20034;-62
2021/04/19 05:16:37;;;;;;;21.63;13.68;;;17.00;66.40;;;;;;5094696;28;20114;-61
2021/04/19 05:19:05;;;;;;;18.88;12.95;;;17.00;66.40;;;;;;5094645;28;20032;-61
2021/04/19 05:21:31;;;;;;;21.58;13.95;;;16.90;67.30;;;;;;5094628;28;20025;-62
2021/04/19 05:23:58;;;;;;;19.38;12.88;;;16.90;66.60;;;;;;5094533;28;20035;-62
2021/04/19 05:26:24;;;;;;;19.00;13.02;;;17.00;66.50;;;;;;5094164;28;20036;-62
2021/04/19 05:28:51;;;;;;;19.48;11.45;;;17.10;66.40;;;;;;5094432;28;20059;-62
2021/04/19 05:31:17;;;;;;;18.92;11.30;;;17.10;66.00;;;;;;5094198;28;20067;-62
2021/04/19 05:33:43;;;;;;;18.13;12.02;;;17.20;65.80;;;;;;5094483;28;20028;-61
2021/04/19 05:36:13;;;;;;;17.15;11.57;;;17.40;65.50;;;;;;5094324;28;20024;-62
2021/04/19 05:38:42;;;;;;;18.73;11.02;;;17.60;65.10;;;;;;5094252;28;20038;-62
2021/04/19 05:41:11;;;;;;;18.25;12.30;;;17.80;64.60;;;;;;5094359;28;20120;-61
2021/04/19 05:43:39;;;;;;;19.15;11.80;;;17.80;64.20;;;;;;5093964;28;20189;-62
2021/04/19 05:46:06;;;;;;;18.95;11.55;;;17.80;64.10;;;;;;5094196;28;20070;-61
2021/04/19 05:48:32;;;;;;;17.38;12.27;;;17.90;64.00;;;;;;5094026;28;20480;-61
2021/04/19 05:51:01;;;;;;;18.08;12.00;;;17.90;63.80;;;;;;5093897;28;20028;-61
2021/04/19 05:53:27;;;;;;;17.40;11.13;;;17.90;63.90;;;;;;5094038;28;20519;-62
2021/04/19 05:55:57;;;;;;;16.92;10.77;;;17.90;63.90;;;;;;5094005;28;20068;-63
2021/04/19 05:58:28;;;;;;;18.60;11.88;;;17.90;64.50;;;;;;5094302;28;20418;-65
2021/04/19 06:01:11;;;;;;;17.90;11.32;;;18.00;64.70;;;;;;5093946;28;20479;-67
2021/04/19 06:04:12;;;;;;;16.27;11.77;;;18.10;64.40;;;;;;5093989;28;20077;-65
2021/04/19 06:07:17;;;;;;;17.17;11.73;;;18.00;64.20;;;;;;5093548;28;20044;-63
2021/04/19 06:09:51;;;;;;;20.05;10.98;;;18.00;64.30;;;;;;5091371;28;20477;-63
2021/04/19 06:12:20;;;;;;;21.67;11.02;;;18.00;64.20;;;;;;5091910;28;20032;-63
2021/04/19 06:14:50;;;;;;;17.20;11.13;;;18.00;64.20;;;;;;5092564;28;20101;-63
2021/04/19 06:17:17;;;;;;;18.27;11.38;;;18.00;64.20;;;;;;5094124;28;20062;-63
2021/04/19 06:19:45;;;;;;;16.33;10.68;;;18.00;64.20;;;;;;5093852;28;20025;-63
2021/04/19 06:22:16;;;;;;;15.85;10.25;;;17.90;64.10;;;;;;5093849;28;20028;-63
2021/04/19 06:24:51;;;;;;;16.40;10.63;;;17.90;64.30;;;;;;5093737;28;20028;-63
2021/04/19 06:27:24;;;;;;;15.60;9.93;;;18.00;64.10;;;;;;5093431;28;20078;-63
2021/04/19 06:29:51;;;;;;;15.70;10.13;;;18.00;64.00;;;;;;5093602;28;20036;-63
2021/04/19 06:32:21;;;;;;;15.07;8.98;;;17.90;64.00;;;;;;5093478;28;20048;-62
2021/04/19 06:34:47;;;;;;;;;;;17.90;64.00;;;;;;5094112;28;20032;-63
2021/04/19 06:37:13;;;;;;;14.32;9.20;;;17.90;64.10;;;;;;5093659;28;20321;-63
2021/04/19 06:39:38;;;;;;;14.25;8.65;;;17.90;63.80;;;;;;5093391;28;20028;-63
2021/04/19 06:42:05;;;;;;;14.00;8.75;;;17.90;64.00;;;;;;5093479;28;20030;-63
2021/04/19 06:44:31;;;;;;;15.43;10.05;;;17.90;64.10;;;;;;5093551;28;20031;-63
2021/04/19 06:47:00;;;;;;;14.18;9.75;;;17.80;64.10;;;;;;5093414;28;20032;-63
2021/04/19 06:49:26;;;;;;;14.80;9.73;;;17.80;64.00;;;;;;5093517;28;20384;-63
2021/04/19 06:51:55;;;;;;;14.95;9.50;;;17.80;64.20;;;;;;5093498;28;20024;-63
2021/04/19 06:54:21;;;;;;;16.17;10.70;;;17.70;64.20;;;;;;5093476;28;20502;-63
2021/04/19 06:56:49;;;;;;;14.73;9.05;;;17.70;64.70;;;;;;5093326;28;20119;-63
2021/04/19 06:59:20;;;;;;;15.88;9.48;;;17.70;64.70;;;;;;5093363;28;20020;-63
2021/04/19 07:01:54;;;;;;;15.85;9.63;;;17.70;64.60;;;;;;5093365;28;20531;-63
2021/04/19 07:04:30;;;;;;;15.50;9.32;;;17.70;64.70;;;;;;5097335;28;20032;-62
2021/04/19 07:06:58;;;;;;;11.95;7.78;;;17.60;64.70;;;;;;5097710;28;20024;-63
2021/04/19 07:09:26;;;;;;;16.88;8.68;;;17.60;64.70;;;;;;5097397;28;20038;-63
2021/04/19 07:12:02;;;;;;;13.73;8.57;;;17.60;64.70;;;;;;5097051;28;20048;-63
2021/04/19 07:14:31;;;;;;;13.32;8.20;;;17.60;64.80;;;;;;5097021;28;20028;-63
2021/04/19 07:16:57;;;;;;;12.43;8.40;;;17.60;64.80;;;;;;5097009;28;20032;-62
2021/04/19 07:19:23;;;;;;;13.57;8.35;;;17.60;64.80;;;;;;5096998;28;20020;-62
2021/04/19 07:21:50;;;;;;;14.23;8.00;;;17.60;64.50;;;;;;5096759;28;20031;-62
2021/04/19 07:24:16;;;;;;;13.23;8.23;;;17.60;64.20;;;;;;5096889;28;20070;-62
2021/04/19 07:26:43;;;;;;;14.18;8.98;;;17.70;64.20;;;;;;5096784;28;20040;-66
2021/04/19 07:29:09;;;;;;;125.45;81.43;;;17.70;64.00;;;;;;5096843;28;20036;-63
2021/04/19 07:31:50;;;;;;;135.65;81.38;;;17.80;63.00;;;;;;5096662;28;20506;-62
2021/04/19 07:34:18;;;;;;;157.93;102.72;;;17.80;61.90;;;;;;5096642;28;20035;-62
2021/04/19 07:36:49;;;;;;;157.70;106.38;;;17.80;60.40;;;;;;5096699;28;20040;-62
2021/04/19 07:39:16;;;;;;;;;;;17.90;59.60;;;;;;5096874;28;20024;-62
2021/04/19 07:41:52;;;;;;;147.60;94.15;;;17.90;58.90;;;;;;5096103;28;20411;-63
2021/04/19 07:44:46;;;;;;;82.90;53.15;;;17.90;58.30;;;;;;5096330;28;20419;-63
2021/04/19 07:47:32;;;;;;;99.05;65.15;;;17.80;56.60;;;;;;5096282;28;20476;-62
2021/04/19 07:50:07;;;;;;;40.55;28.88;;;17.60;54.60;;;;;;5096866;28;20074;-62
2021/04/19 07:52:37;;;;;;;40.00;26.70;;;17.50;53.00;;;;;;5096423;28;20493;-62
2021/04/19 07:55:03;;;;;;;;;;;17.30;54.30;;;;;;5096780;28;20464;-63
2021/04/19 07:57:29;;;;;;;34.80;22.38;;;17.30;54.60;;;;;;5095457;28;19904;-63
2021/04/19 07:59:54;;;;;;;32.85;20.80;;;17.30;54.40;;;;;;5095576;28;20026;-63
2021/04/19 08:02:21;;;;;;;33.30;21.83;;;17.30;54.70;;;;;;5095431;28;20020;-63
2021/04/19 08:04:48;;;;;;;38.08;22.92;;;17.30;55.00;;;;;;5094886;28;20488;-63
2021/04/19 08:07:33;;;;;;;35.67;21.27;;;17.40;55.40;;;;;;5095168;28;20028;-63
2021/04/19 08:10:08;;;;;;;29.35;19.92;;;17.40;55.30;;;;;;5095746;28;20111;-63
2021/04/19 08:12:42;;;;;;;31.25;19.30;;;17.40;55.50;;;;;;5095627;28;20032;-63
2021/04/19 08:15:11;;;;;;;27.45;18.85;;;17.40;55.70;;;;;;5095812;28;20020;-63
2021/04/19 08:17:37;;;;;;;30.65;19.02;;;17.40;55.80;;;;;;5095866;28;20080;-63
2021/04/19 08:20:08;;;;;;;31.02;20.00;;;17.40;55.80;;;;;;5095916;28;20113;-63
2021/04/19 08:22:34;;;;;;;29.30;18.90;;;17.40;56.00;;;;;;5095567;28;20032;-63
2021/04/19 08:25:09;;;;;;;23.85;17.73;;;17.50;56.00;;;;;;5095702;28;20028;-63
2021/04/19 08:27:35;;;;;;;26.95;18.20;;;17.50;56.20;;;;;;5095595;28;20485;-64
2021/04/19 08:30:01;;;;;;;26.42;17.08;;;17.50;56.50;;;;;;5095917;28;20024;-63
2021/04/19 08:32:29;;;;;;;28.63;18.42;;;17.50;56.60;;;;;;5095713;28;20076;-63
2021/04/19 08:34:55;;;;;;;26.23;18.02;;;17.50;56.80;;;;;;5095496;28;20033;-62
2021/04/19 08:37:26;;;;;;;24.88;16.88;;;17.50;56.70;;;;;;5095295;28;20035;-63
2021/04/19 08:39:52;;;;;;;25.45;17.08;;;17.50;56.80;;;;;;5096021;28;20419;-63
2021/04/19 08:42:18;;;;;;;26.77;16.75;;;17.60;56.90;;;;;;5095248;28;20028;-63
2021/04/19 08:44:45;;;;;;;24.17;16.38;;;17.60;56.90;;;;;;5095271;28;20024;-62
2021/04/19 08:47:16;;;;;;;25.52;16.15;;;17.60;57.30;;;;;;5095191;28;20514;-63
2021/04/19 08:49:41;;;;;;;21.52;14.98;;;17.60;56.90;;;;;;5095256;28;20055;-62
2021/04/19 08:52:08;;;;;;;22.98;15.65;;;17.60;56.90;;;;;;5095173;28;20101;-63
2021/04/19 08:54:34;;;;;;;24.70;15.38;;;17.60;57.00;;;;;;5095692;28;20028;-63
2021/04/19 08:57:00;;;;;;;23.02;14.63;;;17.60;56.80;;;;;;5094992;28;20410;-63
2021/04/19 08:59:26;;;;;;;20.10;14.55;;;17.60;56.90;;;;;;5094975;28;20085;-62
2021/04/19 09:01:52;;;;;;;25.13;15.35;;;17.60;57.00;;;;;;5095072;28;20031;-62
2021/04/19 09:04:23;;;;;;;21.75;14.75;;;17.60;57.20;;;;;;5094969;28;20380;-63
2021/04/19 09:06:53;;;;;;;19.23;13.75;;;17.60;57.20;;;;;;5094825;28;20028;-63
2021/04/19 09:09:41;;;;;;;24.77;14.88;;;17.50;57.30;;;;;;5095228;28;20125;-63
2021/04/19 09:12:09;;;;;;;22.13;12.88;;;17.60;57.30;;;;;;5094724;28;20482;-63
2021/04/19 09:14:40;;;;;;;21.25;13.90;;;17.50;57.20;;;;;;5094851;28;20036;-62
2021/04/19 09:17:06;;;;;;;22.52;13.45;;;17.60;57.30;;;;;;5094613;28;20061;-63
2021/04/19 09:19:36;;;;;;;19.98;13.52;;;17.50;57.70;;;;;;5094495;28;20039;-62
2021/04/19 09:22:13;;;;;;;19.02;12.15;;;17.50;57.70;;;;;;5094630;28;20068;-63
2021/04/19 09:25:07;;;;;;;18.02;12.77;;;17.40;57.60;;;;;;5094542;28;20029;-62
2021/04/19 09:27:54;;;;;;;20.63;13.45;;;17.40;57.80;;;;;;5094454;28;20054;-66
2021/04/19 09:30:22;;;;;;;21.33;12.68;;;17.40;57.90;;;;;;5094454;28;20115;-63
2021/04/19 09:33:08;;;;;;;16.08;11.70;;;17.40;58.00;;;;;;5094626;28;20375;-62
2021/04/19 09:35:43;;;;;;;18.38;12.50;;;17.50;57.50;;;;;;5094369;28;20028;-62
2021/04/19 09:38:12;;;;;;;20.40;12.73;;;17.50;57.60;;;;;;5094349;28;20035;-62
2021/04/19 09:40:56;;;;;;;17.58;11.45;;;17.50;57.60;;;;;;5094435;28;20085;-62
2021/04/19 09:43:42;;;;;;;19.83;12.55;;;17.50;57.70;;;;;;5094672;28;20085;-62
2021/04/19 09:46:22;;;;;;;16.17;10.82;;;17.60;57.40;;;;;;5094276;28;20110;-62
2021/04/19 09:48:53;;;;;;;16.87;11.17;;;17.60;57.40;;;;;;5094737;28;20043;-62
2021/04/19 09:51:20;;;;;;;16.65;12.00;;;17.70;57.50;;;;;;5094337;28;20258;-62
2021/04/19 09:54:27;;;;;;;16.90;11.23;;;17.60;57.50;;;;;;5094096;28;20024;-62
2021/04/19 09:56:53;;;;;;;14.98;9.55;;;17.60;57.60;;;;;;5094129;28;20047;-62
2021/04/19 09:59:21;;;;;;;15.82;11.52;;;17.60;57.40;;;;;;5094244;28;20031;-62
2021/04/19 10:01:48;;;;;;;18.23;10.77;;;17.60;57.20;;;;;;5093996;28;20070;-62
2021/04/19 10:04:14;;;;;;;16.25;11.50;;;17.60;57.60;;;;;;5093978;28;20035;-62
2021/04/19 10:06:50;;;;;;;16.33;10.95;;;17.50;57.60;;;;;;5094005;28;20028;-62
2021/04/19 10:09:22;;;;;;;15.27;11.30;;;17.50;57.70;;;;;;5093929;28;20369;-62
2021/04/19 10:11:53;;;;;;;17.95;10.43;;;17.50;57.50;;;;;;5093936;28;20096;-62
2021/04/19 10:14:18;;;;;;;21.63;11.48;;;17.50;57.60;;;;;;5093761;28;20103;-62
2021/04/19 10:16:50;;;;;;;18.50;11.43;;;17.50;57.80;;;;;;5093888;28;20119;-62
2021/04/19 10:19:24;;;;;;;16.25;10.90;;;17.40;57.80;;;;;;5093831;28;20437;-62
2021/04/19 10:22:08;;;;;;;14.30;10.07;;;17.40;57.90;;;;;;5093847;28;20032;-62
2021/04/19 10:24:37;;;;;;;18.38;10.85;;;17.40;57.80;;;;;;5093903;28;20039;-62
2021/04/19 10:27:04;;;;;;;15.82;10.35;;;17.30;58.20;;;;;;5093602;28;20443;-62
2021/04/19 10:29:30;;;;;;;15.90;10.38;;;17.30;58.40;;;;;;5093646;28;20032;-62
2021/04/19 10:32:01;;;;;;;16.85;11.10;;;17.30;58.50;;;;;;5093731;28;20097;-63
2021/04/19 10:34:32;;;;;;;15.68;9.82;;;17.30;58.10;;;;;;5093986;28;20456;-62
2021/04/19 10:37:04;;;;;;;14.38;10.20;;;17.30;58.20;;;;;;5094134;28;20032;-62
2021/04/19 10:39:34;;;;;;;15.68;11.48;;;17.40;57.90;;;;;;5098100;28;20086;-62
2021/04/19 10:42:04;;;;;;;13.32;9.85;;;17.40;57.90;;;;;;5097582;28;20028;-62
2021/04/19 10:44:34;;;;;;;;;;;17.40;57.70;;;;;;5098202;28;20107;-62
2021/04/19 10:47:00;;;;;;;16.50;9.60;;;17.40;57.40;;;;;;5097532;28;19908;-63
2021/04/19 10:49:27;;;;;;;14.23;10.52;;;17.50;57.40;;;;;;5097476;28;20028;-62
2021/04/19 10:51:57;;;;;;;14.95;10.70;;;17.50;57.60;;;;;;5097553;28;20144;-63
2021/04/19 10:54:44;;;;;;;15.30;9.35;;;17.40;57.70;;;;;;5097520;28;20027;-62
2021/04/19 10:57:27;;;;;;;12.73;9.50;;;17.50;57.70;;;;;;5097411;28;20028;-63
2021/04/19 10:59:53;;;;;;;13.50;9.05;;;17.40;57.70;;;;;;5097517;28;20028;-62
2021/04/19 11:02:23;;;;;;;11.93;8.38;;;17.40;57.80;;;;;;5097390;28;20028;-62
2021/04/19 11:04:49;;;;;;;14.65;9.35;;;17.40;57.90;;;;;;5097304;28;20080;-63
2021/04/19 11:07:32;;;;;;;13.20;8.63;;;17.40;57.80;;;;;;5097177;28;20060;-63
2021/04/19 11:10:16;;;;;;;14.10;9.20;;;17.40;58.00;;;;;;5097694;28;20039;-63
2021/04/19 11:13:02;;;;;;;12.40;9.13;;;17.30;58.20;;;;;;5097163;28;20464;-63
2021/04/19 11:15:28;;;;;;;16.13;9.68;;;17.40;58.60;;;;;;5097209;28;20052;-62
2021/04/19 11:17:54;;;;;;;12.45;8.57;;;17.40;58.60;;;;;;5096778;28;20028;-62
2021/04/19 11:20:24;;;;;;;13.45;8.57;;;17.40;58.40;;;;;;5096852;28;20032;-62
2021/04/19 11:22:50;;;;;;;12.38;8.45;;;17.50;58.10;;;;;;5097043;28;20056;-62
2021/04/19 11:25:22;;;;;;;13.13;8.30;;;17.60;57.90;;;;;;5096933;28;20066;-63
2021/04/19 11:27:51;;;;;;;12.50;8.52;;;17.70;57.70;;;;;;5096917;28;20082;-63
2021/04/19 11:30:25;;;;;;;13.90;8.87;;;17.80;57.50;;;;;;5096586;28;20063;-63
2021/04/19 11:33:08;;;;;;;11.43;7.57;;;17.90;57.40;;;;;;5097241;28;20081;-63
2021/04/19 11:35:38;;;;;;;13.48;8.35;;;17.90;57.00;;;;;;5097011;28;20100;-63
2021/04/19 11:38:07;;;;;;;13.38;7.82;;;18.00;57.00;;;;;;5096661;28;20035;-63
2021/04/19 11:40:40;;;;;;;12.43;8.13;;;17.90;57.10;;;;;;5096429;28;20418;-63
2021/04/19 11:43:32;;;;;;;10.82;7.82;;;18.10;56.90;;;;;;5097083;28;20029;-63
2021/04/19 11:46:18;;;;;;;11.93;7.45;;;18.20;56.40;;;;;;5096485;28;20031;-63
2021/04/19 11:48:46;;;;;;;10.93;8.07;;;18.40;56.10;;;;;;5095811;28;20067;-63
2021/04/19 11:51:15;;;;;;;12.30;8.35;;;18.40;56.00;;;;;;5096435;28;20460;-63
2021/04/19 11:53:43;;;;;;;11.35;7.82;;;18.40;56.10;;;;;;5096146;28;20475;-63
2021/04/19 11:56:11;;;;;;;12.50;8.02;;;18.40;56.60;;;;;;5096262;28;20028;-63
2021/04/19 11:58:43;;;;;;;13.20;8.35;;;18.30;56.70;;;;;;5096274;28;20043;-63
2021/04/19 12:01:10;;;;;;;11.85;7.30;;;18.20;56.60;;;;;;5096378;28;20052;-63
2021/04/19 12:03:41;;;;;;;11.73;7.57;;;18.20;56.70;;;;;;5095991;28;20024;-63
2021/04/19 12:06:07;;;;;;;9.13;6.70;;;18.10;56.80;;;;;;5096274;28;20024;-63
2021/04/19 12:08:34;;;;;;;10.93;6.82;;;18.10;56.90;;;;;;5095925;28;20032;-63
2021/04/19 12:10:59;;;;;;;11.02;7.32;;;18.00;57.00;;;;;;5096195;28;20119;-63
2021/04/19 12:13:25;;;;;;;9.68;6.75;;;18.00;57.00;;;;;;5096000;28;20482;-63
2021/04/19 12:15:53;;;;;;;8.90;6.13;;;18.00;57.10;;;;;;5095886;28;20024;-63
2021/04/19 12:18:19;;;;;;;11.32;6.90;;;18.00;57.10;;;;;;5095610;28;20032;-63
2021/04/19 12:20:46;;;;;;;10.48;6.72;;;18.00;57.10;;;;;;5095772;28;20058;-63
2021/04/19 12:23:12;;;;;;;10.80;7.22;;;17.90;57.00;;;;;;5095467;28;20039;-63
2021/04/19 12:25:37;;;;;;;9.57;6.75;;;17.90;57.10;;;;;;5095942;28;20024;-63
2021/04/19 12:28:03;;;;;;;10.68;7.18;;;17.90;57.10;;;;;;5095733;28;20031;-63
2021/04/19 12:30:30;;;;;;;10.40;7.13;;;17.90;57.10;;;;;;5095282;28;20434;-63
2021/04/19 12:32:56;;;;;;;10.05;7.15;;;17.90;57.10;;;;;;5096029;28;20028;-63
2021/04/19 12:35:23;;;;;;;11.18;7.78;;;17.90;57.00;;;;;;5095712;28;20471;-63
2021/04/19 12:37:49;;;;;;;11.07;6.90;;;17.90;57.10;;;;;;5095888;28;20035;-63
2021/04/19 12:40:15;;;;;;;8.45;6.15;;;17.90;57.00;;;;;;5095217;28;20031;-63
2021/04/19 12:42:41;;;;;;;9.02;6.60;;;17.90;57.10;;;;;;5095394;28;20032;-63
2021/04/19 12:45:08;;;;;;;8.90;6.97;;;17.90;56.90;;;;;;5095315;28;20070;-63
2021/04/19 12:47:35;;;;;;;9.50;6.65;;;17.90;56.80;;;;;;5094972;28;20039;-63